sensor_id;sensor_type;location;lat;lon;timestamp;P1;durP1;ratioP1;P2;durP2;ratioP2
38123;SDS011;23934;47.998;9.832;2022-09-14T00:01:37;5.65;;;3.72;;
38123;SDS011;23934;47.998;9.832;2022-09-14T00:04:05;5.50;;;3.75;;
38123;SDS011;23934;47.998;9.832;2022-09-14T00:06:32;9.77;;;3.88;;
38123;SDS011;23934;47.998;9.832;2022-09-14T00:08:58;6.90;;;3.92;;
38123;SDS011;23934;47.998;9.832;2022-09-14T00:11:25;6.78;;;4.35;;
38123;SDS011;23934;47.998;9.832;2022-09-14T00:13:52;6.28;;;4.00;;
38123;SDS011;23934;47.998;9.832;2022-09-14T00:16:23;5.35;;;3.83;;
38123;SDS011;23934;47.998;9.832;2022-09-14T00:18:50;5.80;;;3.67;;
38123;SDS011;23934;47.998;9.832;2022-09-14T00:21:16;11.07;;;4.32;;
38123;SDS011;23934;47.998;9.832;2022-09-14T00:23:42;6.38;;;4.00;;
38123;SDS011;23934;47.998;9.832;2022-09-14T00:26:09;7.20;;;3.63;;
38123;SDS011;23934;47.998;9.832;2022-09-14T00:28:40;7.25;;;3.97;;
38123;SDS011;23934;47.998;9.832;2022-09-14T00:31:07;14.27;;;4.35;;
38123;SDS011;23934;47.998;9.832;2022-09-14T00:33:33;7.43;;;3.90;;
38123;SDS011;23934;47.998;9.832;2022-09-14T00:36:05;13.95;;;4.40;;
38123;SDS011;23934;47.998;9.832;2022-09-14T00:38:32;12.48;;;4.13;;
38123;SDS011;23934;47.998;9.832;2022-09-14T00:40:58;14.23;;;4.05;;
38123;SDS011;23934;47.998;9.832;2022-09-14T00:43:25;7.53;;;4.35;;
38123;SDS011;23934;47.998;9.832;2022-09-14T00:45:51;5.97;;;4.10;;
38123;SDS011;23934;47.998;9.832;2022-09-14T00:48:17;8.02;;;4.60;;
38123;SDS011;23934;47.998;9.832;2022-09-14T00:50:43;8.23;;;4.70;;
38123;SDS011;23934;47.998;9.832;2022-09-14T00:53:10;8.05;;;4.30;;
38123;SDS011;23934;47.998;9.832;2022-09-14T00:55:36;5.43;;;3.95;;
38123;SDS011;23934;47.998;9.832;2022-09-14T00:58:02;8.05;;;3.85;;
38123;SDS011;23934;47.998;9.832;2022-09-14T01:00:29;5.90;;;3.92;;
38123;SDS011;23934;47.998;9.832;2022-09-14T01:02:55;5.70;;;3.67;;
38123;SDS011;23934;47.998;9.832;2022-09-14T01:05:27;5.55;;;3.65;;
38123;SDS011;23934;47.998;9.832;2022-09-14T01:07:59;14.45;;;4.32;;
38123;SDS011;23934;47.998;9.832;2022-09-14T01:11:19;7.50;;;3.97;;
38123;SDS011;23934;47.998;9.832;2022-09-14T01:13:27;10.02;;;3.47;;
38123;SDS011;23934;47.998;9.832;2022-09-14T01:18:26;11.00;;;3.53;;
38123;SDS011;23934;47.998;9.832;2022-09-14T01:23:36;5.72;;;3.78;;
38123;SDS011;23934;47.998;9.832;2022-09-14T01:28:54;4.50;;;2.97;;
38123;SDS011;23934;47.998;9.832;2022-09-14T01:33:52;4.78;;;2.90;;
38123;SDS011;23934;47.998;9.832;2022-09-14T01:36:20;4.53;;;2.92;;
38123;SDS011;23934;47.998;9.832;2022-09-14T01:38:47;5.38;;;3.00;;
38123;SDS011;23934;47.998;9.832;2022-09-14T01:41:15;4.35;;;2.88;;
38123;SDS011;23934;47.998;9.832;2022-09-14T01:43:51;3.90;;;2.90;;
38123;SDS011;23934;47.998;9.832;2022-09-14T01:46:22;4.03;;;2.90;;
38123;SDS011;23934;47.998;9.832;2022-09-14T01:48:51;4.32;;;3.00;;
38123;SDS011;23934;47.998;9.832;2022-09-14T01:51:21;5.32;;;3.08;;
38123;SDS011;23934;47.998;9.832;2022-09-14T01:53:49;9.88;;;3.70;;
38123;SDS011;23934;47.998;9.832;2022-09-14T01:56:24;6.90;;;3.50;;
38123;SDS011;23934;47.998;9.832;2022-09-14T01:58:52;9.23;;;3.22;;
38123;SDS011;23934;47.998;9.832;2022-09-14T02:01:21;5.57;;;2.78;;
38123;SDS011;23934;47.998;9.832;2022-09-14T02:03:51;4.60;;;2.58;;
38123;SDS011;23934;47.998;9.832;2022-09-14T02:06:20;6.35;;;2.47;;
38123;SDS011;23934;47.998;9.832;2022-09-14T02:08:47;5.05;;;2.40;;
38123;SDS011;23934;47.998;9.832;2022-09-14T02:11:14;3.45;;;2.20;;
38123;SDS011;23934;47.998;9.832;2022-09-14T02:13:39;8.30;;;2.58;;
38123;SDS011;23934;47.998;9.832;2022-09-14T02:16:05;5.53;;;2.50;;
38123;SDS011;23934;47.998;9.832;2022-09-14T02:18:32;7.70;;;2.47;;
38123;SDS011;23934;47.998;9.832;2022-09-14T02:21:03;9.27;;;2.58;;
38123;SDS011;23934;47.998;9.832;2022-09-14T02:23:30;5.55;;;2.78;;
38123;SDS011;23934;47.998;9.832;2022-09-14T02:25:56;14.82;;;2.75;;
38123;SDS011;23934;47.998;9.832;2022-09-14T02:28:22;5.65;;;2.38;;
38123;SDS011;23934;47.998;9.832;2022-09-14T02:35:51;4.75;;;2.15;;
38123;SDS011;23934;47.998;9.832;2022-09-14T02:41:23;8.07;;;2.15;;
38123;SDS011;23934;47.998;9.832;2022-09-14T02:46:43;3.38;;;2.35;;
38123;SDS011;23934;47.998;9.832;2022-09-14T02:54:07;8.82;;;2.65;;
38123;SDS011;23934;47.998;9.832;2022-09-14T02:56:35;6.15;;;2.70;;
38123;SDS011;23934;47.998;9.832;2022-09-14T02:59:02;5.05;;;2.53;;
38123;SDS011;23934;47.998;9.832;2022-09-14T03:01:28;7.28;;;2.00;;
38123;SDS011;23934;47.998;9.832;2022-09-14T03:03:54;3.88;;;1.83;;
38123;SDS011;23934;47.998;9.832;2022-09-14T03:06:20;7.47;;;2.10;;
38123;SDS011;23934;47.998;9.832;2022-09-14T03:08:46;7.75;;;2.42;;
38123;SDS011;23934;47.998;9.832;2022-09-14T03:11:13;2.75;;;2.28;;
38123;SDS011;23934;47.998;9.832;2022-09-14T03:13:39;5.22;;;2.53;;
38123;SDS011;23934;47.998;9.832;2022-09-14T03:16:05;6.50;;;2.65;;
38123;SDS011;23934;47.998;9.832;2022-09-14T03:18:32;5.43;;;2.58;;
38123;SDS011;23934;47.998;9.832;2022-09-14T03:21:02;5.35;;;2.70;;
38123;SDS011;23934;47.998;9.832;2022-09-14T03:23:28;8.27;;;2.55;;
38123;SDS011;23934;47.998;9.832;2022-09-14T03:25:54;3.83;;;3.03;;
38123;SDS011;23934;47.998;9.832;2022-09-14T03:28:20;3.38;;;2.55;;
38123;SDS011;23934;47.998;9.832;2022-09-14T03:30:46;4.57;;;2.40;;
38123;SDS011;23934;47.998;9.832;2022-09-14T03:33:12;4.85;;;2.40;;
38123;SDS011;23934;47.998;9.832;2022-09-14T03:35:39;6.20;;;2.83;;
38123;SDS011;23934;47.998;9.832;2022-09-14T03:38:05;7.78;;;2.30;;
38123;SDS011;23934;47.998;9.832;2022-09-14T03:40:31;10.68;;;2.90;;
38123;SDS011;23934;47.998;9.832;2022-09-14T03:42:57;6.95;;;3.28;;
38123;SDS011;23934;47.998;9.832;2022-09-14T03:45:23;4.45;;;2.83;;
38123;SDS011;23934;47.998;9.832;2022-09-14T03:47:49;3.97;;;2.50;;
38123;SDS011;23934;47.998;9.832;2022-09-14T03:50:16;7.85;;;3.30;;
38123;SDS011;23934;47.998;9.832;2022-09-14T03:52:42;4.72;;;2.78;;
38123;SDS011;23934;47.998;9.832;2022-09-14T03:55:09;5.45;;;3.47;;
38123;SDS011;23934;47.998;9.832;2022-09-14T03:57:35;6.47;;;3.00;;
38123;SDS011;23934;47.998;9.832;2022-09-14T04:00:02;5.20;;;2.85;;
38123;SDS011;23934;47.998;9.832;2022-09-14T04:02:28;8.25;;;2.88;;
38123;SDS011;23934;47.998;9.832;2022-09-14T04:04:54;4.70;;;3.25;;
38123;SDS011;23934;47.998;9.832;2022-09-14T04:07:20;4.43;;;3.30;;
38123;SDS011;23934;47.998;9.832;2022-09-14T04:09:46;7.03;;;3.92;;
38123;SDS011;23934;47.998;9.832;2022-09-14T04:12:12;5.20;;;3.33;;
38123;SDS011;23934;47.998;9.832;2022-09-14T04:14:38;8.00;;;4.32;;
38123;SDS011;23934;47.998;9.832;2022-09-14T04:17:04;6.10;;;3.60;;
38123;SDS011;23934;47.998;9.832;2022-09-14T04:19:30;7.22;;;4.20;;
38123;SDS011;23934;47.998;9.832;2022-09-14T04:21:59;5.75;;;3.47;;
38123;SDS011;23934;47.998;9.832;2022-09-14T04:24:25;11.35;;;3.50;;
38123;SDS011;23934;47.998;9.832;2022-09-14T04:26:51;12.35;;;3.30;;
38123;SDS011;23934;47.998;9.832;2022-09-14T04:29:17;6.43;;;3.25;;
38123;SDS011;23934;47.998;9.832;2022-09-14T04:31:42;6.18;;;2.95;;
38123;SDS011;23934;47.998;9.832;2022-09-14T04:34:10;7.53;;;3.40;;
38123;SDS011;23934;47.998;9.832;2022-09-14T04:36:36;4.38;;;2.80;;
38123;SDS011;23934;47.998;9.832;2022-09-14T04:39:02;6.70;;;3.10;;
38123;SDS011;23934;47.998;9.832;2022-09-14T04:41:28;4.13;;;2.70;;
38123;SDS011;23934;47.998;9.832;2022-09-14T04:43:55;10.15;;;2.85;;
38123;SDS011;23934;47.998;9.832;2022-09-14T04:46:22;3.92;;;2.80;;
38123;SDS011;23934;47.998;9.832;2022-09-14T04:48:49;7.72;;;2.85;;
38123;SDS011;23934;47.998;9.832;2022-09-14T04:51:16;3.17;;;2.38;;
38123;SDS011;23934;47.998;9.832;2022-09-14T04:53:43;5.93;;;3.30;;
38123;SDS011;23934;47.998;9.832;2022-09-14T04:56:10;4.60;;;2.63;;
38123;SDS011;23934;47.998;9.832;2022-09-14T04:58:37;8.07;;;2.70;;
38123;SDS011;23934;47.998;9.832;2022-09-14T05:01:07;6.55;;;3.03;;
38123;SDS011;23934;47.998;9.832;2022-09-14T05:03:33;9.55;;;3.28;;
38123;SDS011;23934;47.998;9.832;2022-09-14T05:06:04;4.68;;;2.75;;
38123;SDS011;23934;47.998;9.832;2022-09-14T05:08:30;8.82;;;3.30;;
38123;SDS011;23934;47.998;9.832;2022-09-14T05:10:56;7.72;;;2.88;;
38123;SDS011;23934;47.998;9.832;2022-09-14T05:13:23;6.75;;;2.85;;
38123;SDS011;23934;47.998;9.832;2022-09-14T05:15:50;4.35;;;3.17;;
38123;SDS011;23934;47.998;9.832;2022-09-14T05:18:16;5.35;;;2.67;;
38123;SDS011;23934;47.998;9.832;2022-09-14T05:20:42;8.88;;;2.55;;
38123;SDS011;23934;47.998;9.832;2022-09-14T05:23:08;9.00;;;3.38;;
38123;SDS011;23934;47.998;9.832;2022-09-14T05:25:34;6.20;;;2.63;;
38123;SDS011;23934;47.998;9.832;2022-09-14T05:28:00;7.28;;;2.97;;
38123;SDS011;23934;47.998;9.832;2022-09-14T05:30:26;9.20;;;3.13;;
38123;SDS011;23934;47.998;9.832;2022-09-14T05:32:52;5.22;;;3.05;;
38123;SDS011;23934;47.998;9.832;2022-09-14T05:35:18;7.80;;;3.35;;
38123;SDS011;23934;47.998;9.832;2022-09-14T05:37:44;7.05;;;3.08;;
38123;SDS011;23934;47.998;9.832;2022-09-14T05:40:10;11.27;;;4.50;;
38123;SDS011;23934;47.998;9.832;2022-09-14T05:42:36;6.47;;;3.13;;
38123;SDS011;23934;47.998;9.832;2022-09-14T05:45:02;10.75;;;3.50;;
38123;SDS011;23934;47.998;9.832;2022-09-14T05:47:28;10.20;;;3.40;;
38123;SDS011;23934;47.998;9.832;2022-09-14T05:49:54;4.30;;;2.75;;
38123;SDS011;23934;47.998;9.832;2022-09-14T05:52:20;7.32;;;2.95;;
38123;SDS011;23934;47.998;9.832;2022-09-14T05:54:46;7.10;;;2.92;;
38123;SDS011;23934;47.998;9.832;2022-09-14T05:57:12;6.88;;;3.22;;
38123;SDS011;23934;47.998;9.832;2022-09-14T05:59:38;7.68;;;3.55;;
38123;SDS011;23934;47.998;9.832;2022-09-14T06:02:04;8.15;;;3.50;;
38123;SDS011;23934;47.998;9.832;2022-09-14T06:04:30;9.23;;;3.40;;
38123;SDS011;23934;47.998;9.832;2022-09-14T06:06:56;6.40;;;3.63;;
38123;SDS011;23934;47.998;9.832;2022-09-14T06:09:22;8.95;;;3.28;;
38123;SDS011;23934;47.998;9.832;2022-09-14T06:11:48;9.50;;;3.25;;
38123;SDS011;23934;47.998;9.832;2022-09-14T06:14:14;5.80;;;3.10;;
38123;SDS011;23934;47.998;9.832;2022-09-14T06:16:43;8.90;;;3.55;;
38123;SDS011;23934;47.998;9.832;2022-09-14T06:19:09;9.30;;;3.47;;
38123;SDS011;23934;47.998;9.832;2022-09-14T06:21:36;5.57;;;2.95;;
38123;SDS011;23934;47.998;9.832;2022-09-14T06:24:02;4.78;;;3.08;;
38123;SDS011;23934;47.998;9.832;2022-09-14T06:26:28;4.82;;;3.22;;
38123;SDS011;23934;47.998;9.832;2022-09-14T06:28:55;11.95;;;3.28;;
38123;SDS011;23934;47.998;9.832;2022-09-14T06:31:21;8.35;;;2.92;;
38123;SDS011;23934;47.998;9.832;2022-09-14T06:33:49;7.78;;;3.20;;
38123;SDS011;23934;47.998;9.832;2022-09-14T06:36:16;6.55;;;3.22;;
38123;SDS011;23934;47.998;9.832;2022-09-14T06:38:43;5.40;;;2.60;;
38123;SDS011;23934;47.998;9.832;2022-09-14T06:41:11;6.88;;;2.78;;
38123;SDS011;23934;47.998;9.832;2022-09-14T06:43:37;6.25;;;3.03;;
38123;SDS011;23934;47.998;9.832;2022-09-14T06:46:05;3.78;;;3.00;;
38123;SDS011;23934;47.998;9.832;2022-09-14T06:48:36;6.82;;;3.75;;
38123;SDS011;23934;47.998;9.832;2022-09-14T06:51:12;9.10;;;2.92;;
38123;SDS011;23934;47.998;9.832;2022-09-14T06:53:38;7.05;;;3.08;;
38123;SDS011;23934;47.998;9.832;2022-09-14T06:56:04;8.57;;;3.53;;
38123;SDS011;23934;47.998;9.832;2022-09-14T06:58:31;6.85;;;3.38;;
38123;SDS011;23934;47.998;9.832;2022-09-14T07:01:04;14.32;;;3.78;;
38123;SDS011;23934;47.998;9.832;2022-09-14T07:03:31;7.78;;;2.83;;
38123;SDS011;23934;47.998;9.832;2022-09-14T07:06:06;9.63;;;3.47;;
38123;SDS011;23934;47.998;9.832;2022-09-14T07:08:33;6.93;;;3.20;;
38123;SDS011;23934;47.998;9.832;2022-09-14T07:10:59;11.02;;;3.13;;
38123;SDS011;23934;47.998;9.832;2022-09-14T07:13:26;5.97;;;2.78;;
38123;SDS011;23934;47.998;9.832;2022-09-14T07:15:53;6.72;;;3.53;;
38123;SDS011;23934;47.998;9.832;2022-09-14T07:18:19;9.60;;;3.45;;
38123;SDS011;23934;47.998;9.832;2022-09-14T07:20:46;6.88;;;3.67;;
38123;SDS011;23934;47.998;9.832;2022-09-14T07:23:12;10.93;;;3.22;;
38123;SDS011;23934;47.998;9.832;2022-09-14T07:25:38;5.88;;;3.35;;
38123;SDS011;23934;47.998;9.832;2022-09-14T07:28:04;5.18;;;2.97;;
38123;SDS011;23934;47.998;9.832;2022-09-14T07:30:33;10.63;;;3.58;;
38123;SDS011;23934;47.998;9.832;2022-09-14T07:32:59;5.65;;;2.90;;
38123;SDS011;23934;47.998;9.832;2022-09-14T07:35:25;5.93;;;2.60;;
38123;SDS011;23934;47.998;9.832;2022-09-14T07:37:52;4.13;;;2.67;;
38123;SDS011;23934;47.998;9.832;2022-09-14T07:40:18;12.13;;;2.90;;
38123;SDS011;23934;47.998;9.832;2022-09-14T07:42:50;9.38;;;3.28;;
38123;SDS011;23934;47.998;9.832;2022-09-14T07:45:17;13.27;;;3.08;;
38123;SDS011;23934;47.998;9.832;2022-09-14T07:47:42;6.03;;;2.70;;
38123;SDS011;23934;47.998;9.832;2022-09-14T07:50:08;4.07;;;2.75;;
38123;SDS011;23934;47.998;9.832;2022-09-14T07:52:35;7.07;;;2.70;;
38123;SDS011;23934;47.998;9.832;2022-09-14T07:55:01;14.00;;;2.40;;
38123;SDS011;23934;47.998;9.832;2022-09-14T07:57:27;5.72;;;2.40;;
38123;SDS011;23934;47.998;9.832;2022-09-14T07:59:53;4.88;;;2.60;;
38123;SDS011;23934;47.998;9.832;2022-09-14T08:02:19;6.15;;;2.72;;
38123;SDS011;23934;47.998;9.832;2022-09-14T08:04:47;2.92;;;1.80;;
38123;SDS011;23934;47.998;9.832;2022-09-14T08:07:13;6.57;;;2.65;;
38123;SDS011;23934;47.998;9.832;2022-09-14T08:09:39;4.53;;;3.03;;
38123;SDS011;23934;47.998;9.832;2022-09-14T08:12:05;4.55;;;2.53;;
38123;SDS011;23934;47.998;9.832;2022-09-14T08:14:31;5.85;;;3.35;;
38123;SDS011;23934;47.998;9.832;2022-09-14T08:16:57;8.45;;;2.92;;
38123;SDS011;23934;47.998;9.832;2022-09-14T08:19:24;7.53;;;3.00;;
38123;SDS011;23934;47.998;9.832;2022-09-14T08:21:50;5.45;;;2.63;;
38123;SDS011;23934;47.998;9.832;2022-09-14T08:24:17;10.00;;;2.95;;
38123;SDS011;23934;47.998;9.832;2022-09-14T08:26:44;9.20;;;2.97;;
38123;SDS011;23934;47.998;9.832;2022-09-14T08:29:11;3.60;;;2.65;;
38123;SDS011;23934;47.998;9.832;2022-09-14T08:31:37;8.07;;;2.72;;
38123;SDS011;23934;47.998;9.832;2022-09-14T08:34:04;9.65;;;2.83;;
38123;SDS011;23934;47.998;9.832;2022-09-14T08:36:31;7.90;;;3.00;;
38123;SDS011;23934;47.998;9.832;2022-09-14T08:38:57;7.15;;;2.80;;
38123;SDS011;23934;47.998;9.832;2022-09-14T08:43:50;5.18;;;2.60;;
38123;SDS011;23934;47.998;9.832;2022-09-14T08:46:20;13.20;;;3.38;;
38123;SDS011;23934;47.998;9.832;2022-09-14T08:48:50;8.43;;;2.60;;
38123;SDS011;23934;47.998;9.832;2022-09-14T08:51:17;4.63;;;2.67;;
38123;SDS011;23934;47.998;9.832;2022-09-14T08:53:43;3.90;;;2.53;;
38123;SDS011;23934;47.998;9.832;2022-09-14T08:56:14;7.13;;;2.80;;
38123;SDS011;23934;47.998;9.832;2022-09-14T08:58:46;5.50;;;2.53;;
38123;SDS011;23934;47.998;9.832;2022-09-14T09:01:32;5.07;;;2.70;;
38123;SDS011;23934;47.998;9.832;2022-09-14T09:06:39;4.80;;;2.70;;
38123;SDS011;23934;47.998;9.832;2022-09-14T09:09:32;6.95;;;2.90;;
38123;SDS011;23934;47.998;9.832;2022-09-14T09:11:56;8.43;;;2.97;;
38123;SDS011;23934;47.998;9.832;2022-09-14T09:16:52;7.70;;;2.78;;
38123;SDS011;23934;47.998;9.832;2022-09-14T09:19:27;5.63;;;2.63;;
38123;SDS011;23934;47.998;9.832;2022-09-14T09:21:55;8.18;;;2.97;;
38123;SDS011;23934;47.998;9.832;2022-09-14T09:26:50;8.25;;;3.47;;
38123;SDS011;23934;47.998;9.832;2022-09-14T09:29:16;4.72;;;2.50;;
38123;SDS011;23934;47.998;9.832;2022-09-14T09:31:44;9.05;;;2.55;;
38123;SDS011;23934;47.998;9.832;2022-09-14T09:34:12;4.90;;;3.20;;
38123;SDS011;23934;47.998;9.832;2022-09-14T09:36:39;5.60;;;2.88;;
38123;SDS011;23934;47.998;9.832;2022-09-14T09:39:05;6.50;;;2.78;;
38123;SDS011;23934;47.998;9.832;2022-09-14T09:44:16;9.48;;;3.15;;
38123;SDS011;23934;47.998;9.832;2022-09-14T09:46:55;5.25;;;2.92;;
38123;SDS011;23934;47.998;9.832;2022-09-14T09:51:49;8.77;;;2.88;;
38123;SDS011;23934;47.998;9.832;2022-09-14T09:56:52;8.45;;;2.92;;
38123;SDS011;23934;47.998;9.832;2022-09-14T09:59:29;4.95;;;2.92;;
38123;SDS011;23934;47.998;9.832;2022-09-14T10:01:56;4.07;;;2.42;;
38123;SDS011;23934;47.998;9.832;2022-09-14T10:04:38;4.80;;;2.58;;
38123;SDS011;23934;47.998;9.832;2022-09-14T10:09:48;9.20;;;2.40;;
38123;SDS011;23934;47.998;9.832;2022-09-14T10:12:21;4.78;;;2.40;;
38123;SDS011;23934;47.998;9.832;2022-09-14T10:15:05;5.45;;;2.35;;
38123;SDS011;23934;47.998;9.832;2022-09-14T10:17:31;4.75;;;2.38;;
38123;SDS011;23934;47.998;9.832;2022-09-14T10:19:58;5.32;;;3.00;;
38123;SDS011;23934;47.998;9.832;2022-09-14T10:24:55;7.00;;;2.38;;
38123;SDS011;23934;47.998;9.832;2022-09-14T10:27:32;8.45;;;2.60;;
38123;SDS011;23934;47.998;9.832;2022-09-14T10:29:59;5.32;;;2.42;;
38123;SDS011;23934;47.998;9.832;2022-09-14T10:32:27;4.70;;;2.38;;
38123;SDS011;23934;47.998;9.832;2022-09-14T10:34:54;5.78;;;2.47;;
38123;SDS011;23934;47.998;9.832;2022-09-14T10:37:26;3.67;;;2.13;;
38123;SDS011;23934;47.998;9.832;2022-09-14T10:42:43;4.35;;;2.70;;
38123;SDS011;23934;47.998;9.832;2022-09-14T10:45:29;4.35;;;2.38;;
38123;SDS011;23934;47.998;9.832;2022-09-14T10:48:15;5.03;;;2.65;;
38123;SDS011;23934;47.998;9.832;2022-09-14T10:53:22;6.20;;;2.70;;
38123;SDS011;23934;47.998;9.832;2022-09-14T10:58:49;7.53;;;2.63;;
38123;SDS011;23934;47.998;9.832;2022-09-14T11:01:22;8.38;;;2.58;;
38123;SDS011;23934;47.998;9.832;2022-09-14T11:06:55;5.57;;;2.78;;
38123;SDS011;23934;47.998;9.832;2022-09-14T11:19:54;7.85;;;2.60;;
38123;SDS011;23934;47.998;9.832;2022-09-14T11:24:55;5.75;;;2.25;;
38123;SDS011;23934;47.998;9.832;2022-09-14T11:27:33;6.13;;;2.67;;
38123;SDS011;23934;47.998;9.832;2022-09-14T11:30:03;5.93;;;2.22;;
38123;SDS011;23934;47.998;9.832;2022-09-14T11:32:31;13.13;;;2.78;;
38123;SDS011;23934;47.998;9.832;2022-09-14T11:40:17;4.43;;;2.30;;
38123;SDS011;23934;47.998;9.832;2022-09-14T11:42:48;7.47;;;2.30;;
38123;SDS011;23934;47.998;9.832;2022-09-14T11:45:17;8.93;;;2.45;;
38123;SDS011;23934;47.998;9.832;2022-09-14T11:47:47;5.25;;;2.25;;
38123;SDS011;23934;47.998;9.832;2022-09-14T11:50:20;3.78;;;1.92;;
38123;SDS011;23934;47.998;9.832;2022-09-14T11:52:47;6.20;;;2.30;;
38123;SDS011;23934;47.998;9.832;2022-09-14T11:55:20;8.10;;;2.47;;
38123;SDS011;23934;47.998;9.832;2022-09-14T11:57:46;9.45;;;2.53;;
38123;SDS011;23934;47.998;9.832;2022-09-14T12:02:57;7.97;;;2.85;;
38123;SDS011;23934;47.998;9.832;2022-09-14T12:05:25;12.93;;;3.33;;
38123;SDS011;23934;47.998;9.832;2022-09-14T12:10:19;6.35;;;2.58;;
38123;SDS011;23934;47.998;9.832;2022-09-14T12:12:49;8.70;;;2.70;;
38123;SDS011;23934;47.998;9.832;2022-09-14T12:17:49;7.63;;;2.22;;
38123;SDS011;23934;47.998;9.832;2022-09-14T12:23:17;3.55;;;2.30;;
38123;SDS011;23934;47.998;9.832;2022-09-14T12:40:59;9.35;;;2.55;;
38123;SDS011;23934;47.998;9.832;2022-09-14T12:43:45;6.28;;;2.20;;
38123;SDS011;23934;47.998;9.832;2022-09-14T12:54:09;7.78;;;2.38;;
38123;SDS011;23934;47.998;9.832;2022-09-14T12:59:32;5.38;;;2.10;;
38123;SDS011;23934;47.998;9.832;2022-09-14T13:06:52;7.75;;;2.08;;
38123;SDS011;23934;47.998;9.832;2022-09-14T13:09:19;4.85;;;2.20;;
38123;SDS011;23934;47.998;9.832;2022-09-14T13:11:47;4.45;;;1.85;;
38123;SDS011;23934;47.998;9.832;2022-09-14T13:14:17;4.80;;;2.10;;
38123;SDS011;23934;47.998;9.832;2022-09-14T13:16:43;9.18;;;2.30;;
38123;SDS011;23934;47.998;9.832;2022-09-14T13:19:29;4.38;;;1.75;;
38123;SDS011;23934;47.998;9.832;2022-09-14T13:21:56;5.97;;;1.95;;
38123;SDS011;23934;47.998;9.832;2022-09-14T13:27:02;6.72;;;2.33;;
38123;SDS011;23934;47.998;9.832;2022-09-14T13:29:29;6.72;;;2.20;;
38123;SDS011;23934;47.998;9.832;2022-09-14T13:31:56;14.98;;;2.20;;
38123;SDS011;23934;47.998;9.832;2022-09-14T13:36:48;6.32;;;2.17;;
38123;SDS011;23934;47.998;9.832;2022-09-14T13:39:25;5.68;;;1.92;;
38123;SDS011;23934;47.998;9.832;2022-09-14T13:41:52;6.68;;;2.00;;
38123;SDS011;23934;47.998;9.832;2022-09-14T13:44:19;11.55;;;2.05;;
38123;SDS011;23934;47.998;9.832;2022-09-14T13:46:47;6.60;;;1.80;;
38123;SDS011;23934;47.998;9.832;2022-09-14T13:49:13;3.25;;;2.08;;
38123;SDS011;23934;47.998;9.832;2022-09-14T13:51:39;4.10;;;1.83;;
38123;SDS011;23934;47.998;9.832;2022-09-14T13:54:16;6.50;;;1.83;;
38123;SDS011;23934;47.998;9.832;2022-09-14T13:56:42;5.10;;;1.83;;
38123;SDS011;23934;47.998;9.832;2022-09-14T14:01:36;5.28;;;1.85;;
38123;SDS011;23934;47.998;9.832;2022-09-14T14:04:03;4.18;;;1.83;;
38123;SDS011;23934;47.998;9.832;2022-09-14T14:06:30;6.47;;;1.70;;
38123;SDS011;23934;47.998;9.832;2022-09-14T14:11:26;14.40;;;1.90;;
38123;SDS011;23934;47.998;9.832;2022-09-14T14:13:53;4.72;;;1.70;;
38123;SDS011;23934;47.998;9.832;2022-09-14T14:16:23;5.22;;;2.22;;
38123;SDS011;23934;47.998;9.832;2022-09-14T14:18:56;9.27;;;2.05;;
38123;SDS011;23934;47.998;9.832;2022-09-14T14:26:22;5.38;;;1.90;;
38123;SDS011;23934;47.998;9.832;2022-09-14T14:28:50;5.72;;;1.85;;
38123;SDS011;23934;47.998;9.832;2022-09-14T14:31:17;2.25;;;1.70;;
38123;SDS011;23934;47.998;9.832;2022-09-14T14:33:47;3.83;;;1.77;;
38123;SDS011;23934;47.998;9.832;2022-09-14T14:36:14;3.40;;;2.13;;
38123;SDS011;23934;47.998;9.832;2022-09-14T14:38:40;5.07;;;2.85;;
38123;SDS011;23934;47.998;9.832;2022-09-14T14:41:10;4.63;;;2.00;;
38123;SDS011;23934;47.998;9.832;2022-09-14T14:43:38;7.70;;;2.03;;
38123;SDS011;23934;47.998;9.832;2022-09-14T14:46:05;5.28;;;1.77;;
38123;SDS011;23934;47.998;9.832;2022-09-14T14:48:31;4.05;;;1.73;;
38123;SDS011;23934;47.998;9.832;2022-09-14T14:50:57;10.45;;;2.30;;
38123;SDS011;23934;47.998;9.832;2022-09-14T14:53:24;12.73;;;2.70;;
38123;SDS011;23934;47.998;9.832;2022-09-14T14:55:51;9.20;;;2.25;;
38123;SDS011;23934;47.998;9.832;2022-09-14T14:58:18;5.68;;;2.22;;
38123;SDS011;23934;47.998;9.832;2022-09-14T15:00:44;5.43;;;1.83;;
38123;SDS011;23934;47.998;9.832;2022-09-14T15:03:11;12.02;;;2.75;;
38123;SDS011;23934;47.998;9.832;2022-09-14T15:05:40;5.97;;;1.92;;
38123;SDS011;23934;47.998;9.832;2022-09-14T15:08:07;7.78;;;1.90;;
38123;SDS011;23934;47.998;9.832;2022-09-14T15:10:33;4.75;;;1.92;;
38123;SDS011;23934;47.998;9.832;2022-09-14T15:12:59;3.60;;;1.77;;
38123;SDS011;23934;47.998;9.832;2022-09-14T15:15:25;6.93;;;2.08;;
38123;SDS011;23934;47.998;9.832;2022-09-14T15:17:51;5.97;;;2.03;;
38123;SDS011;23934;47.998;9.832;2022-09-14T15:20:18;5.28;;;1.60;;
38123;SDS011;23934;47.998;9.832;2022-09-14T15:22:44;3.75;;;1.42;;
38123;SDS011;23934;47.998;9.832;2022-09-14T15:25:11;3.30;;;1.40;;
38123;SDS011;23934;47.998;9.832;2022-09-14T15:27:37;4.28;;;1.33;;
38123;SDS011;23934;47.998;9.832;2022-09-14T15:30:03;3.83;;;1.25;;
38123;SDS011;23934;47.998;9.832;2022-09-14T15:32:30;4.20;;;1.50;;
38123;SDS011;23934;47.998;9.832;2022-09-14T15:34:56;8.85;;;1.73;;
38123;SDS011;23934;47.998;9.832;2022-09-14T15:37:22;4.20;;;1.15;;
38123;SDS011;23934;47.998;9.832;2022-09-14T15:39:47;3.75;;;1.52;;
38123;SDS011;23934;47.998;9.832;2022-09-14T15:42:15;5.00;;;1.35;;
38123;SDS011;23934;47.998;9.832;2022-09-14T15:44:41;7.97;;;1.60;;
38123;SDS011;23934;47.998;9.832;2022-09-14T15:47:08;3.83;;;1.20;;
38123;SDS011;23934;47.998;9.832;2022-09-14T15:49:34;4.10;;;1.25;;
38123;SDS011;23934;47.998;9.832;2022-09-14T15:52:00;2.60;;;0.95;;
38123;SDS011;23934;47.998;9.832;2022-09-14T15:54:29;3.45;;;1.00;;
38123;SDS011;23934;47.998;9.832;2022-09-14T15:56:55;1.30;;;0.85;;
38123;SDS011;23934;47.998;9.832;2022-09-14T15:59:24;2.85;;;0.90;;
38123;SDS011;23934;47.998;9.832;2022-09-14T16:01:50;3.47;;;0.75;;
38123;SDS011;23934;47.998;9.832;2022-09-14T16:04:16;2.97;;;0.90;;
38123;SDS011;23934;47.998;9.832;2022-09-14T16:06:42;4.88;;;1.20;;
38123;SDS011;23934;47.998;9.832;2022-09-14T16:09:09;2.10;;;0.77;;
38123;SDS011;23934;47.998;9.832;2022-09-14T16:11:36;0.90;;;0.65;;
38123;SDS011;23934;47.998;9.832;2022-09-14T16:14:02;2.08;;;1.23;;
38123;SDS011;23934;47.998;9.832;2022-09-14T16:16:31;1.85;;;0.60;;
38123;SDS011;23934;47.998;9.832;2022-09-14T16:19:02;1.00;;;0.90;;
38123;SDS011;23934;47.998;9.832;2022-09-14T16:21:28;1.08;;;0.60;;
38123;SDS011;23934;47.998;9.832;2022-09-14T16:23:55;0.60;;;0.60;;
38123;SDS011;23934;47.998;9.832;2022-09-14T16:26:23;2.45;;;0.82;;
38123;SDS011;23934;47.998;9.832;2022-09-14T16:28:49;4.25;;;0.90;;
38123;SDS011;23934;47.998;9.832;2022-09-14T16:31:18;2.72;;;0.88;;
38123;SDS011;23934;47.998;9.832;2022-09-14T16:33:45;1.80;;;0.90;;
38123;SDS011;23934;47.998;9.832;2022-09-14T16:36:13;1.60;;;1.05;;
38123;SDS011;23934;47.998;9.832;2022-09-14T16:38:40;2.17;;;1.00;;
38123;SDS011;23934;47.998;9.832;2022-09-14T16:41:06;1.38;;;0.90;;
38123;SDS011;23934;47.998;9.832;2022-09-14T16:43:32;3.88;;;1.00;;
38123;SDS011;23934;47.998;9.832;2022-09-14T16:46:02;1.67;;;0.90;;
38123;SDS011;23934;47.998;9.832;2022-09-14T16:48:29;5.18;;;1.20;;
38123;SDS011;23934;47.998;9.832;2022-09-14T16:50:55;3.90;;;1.25;;
38123;SDS011;23934;47.998;9.832;2022-09-14T16:53:22;3.58;;;1.20;;
38123;SDS011;23934;47.998;9.832;2022-09-14T16:55:48;6.55;;;1.70;;
38123;SDS011;23934;47.998;9.832;2022-09-14T16:58:14;6.57;;;1.65;;
38123;SDS011;23934;47.998;9.832;2022-09-14T17:00:40;4.82;;;1.35;;
38123;SDS011;23934;47.998;9.832;2022-09-14T17:03:06;6.00;;;1.42;;
38123;SDS011;23934;47.998;9.832;2022-09-14T17:05:32;2.83;;;1.58;;